Dunsmuir Atmospheric Data: 07/12/2019 Summary  Detailed Graphs  Station List

  Temperature     Wind Precipitation Visibility
Timestamp Air Wet
Bulb
Dew-
point
24-hr
Max
24-hr
Min
Relative
Humidity
Atmospheric
Pressure
Avg
Speed
Avg
Dir
Spot
Speed
Spot
Dir
Max
Speed
Max
Dir
  Rate Situation Start End 1 hr 3 hr 6 hr 12 hr 24 hr   Situation
Date Time °F °F °F °F °F % in Hg mph ° mph ° mph ° Y/N in/hr text Date Time Date Time in in in in in mi text
07/12/2019 12:01 AM 67.28 59.90 55.22 90.50 57.92 65.0 Not Reported 1.34 NW 1.34 NW 1.79 NW No 0.000 No Precipitation 06/26/2019 05:03 PM 06/26/2019 05:08 PM 0.000 0.000 0.000 0.000 0.000 Not Reported Not Reported
07/12/2019 12:16 AM 67.28 60.08 55.40 90.50 57.92 65.0 Not Reported 2.24 W 1.57 W 2.46 NW No 0.000 No Precipitation 06/26/2019 05:03 PM 06/26/2019 05:08 PM 0.000 0.000 0.000 0.000 0.000 Not Reported Not Reported
07/12/2019 12:31 AM 66.74 59.72 55.04 90.50 57.92 65.0 Not Reported 1.79 NW 2.24 NW 2.46 NW No 0.000 No Precipitation 06/26/2019 05:03 PM 06/26/2019 05:08 PM 0.000 0.000 0.000 0.000 0.000 Not Reported Not Reported
07/12/2019 12:46 AM 66.56 59.54 54.86 90.50 57.92 66.0 Not Reported 1.79 NW 1.79 NW 2.46 NW No 0.000 No Precipitation 06/26/2019 05:03 PM 06/26/2019 05:08 PM 0.000 0.000 0.000 0.000 0.000 Not Reported Not Reported
07/12/2019 01:01 AM 65.84 59.36 55.04 90.50 57.92 67.0 Not Reported 2.91 NW 1.34 NW 4.03 N No 0.000 No Precipitation 06/26/2019 05:03 PM 06/26/2019 05:08 PM 0.000 0.000 0.000 0.000 0.000 Not Reported Not Reported
07/12/2019 01:16 AM 67.10 59.36 54.32 90.50 57.92 63.0 Not Reported 2.24 NW 2.46 N 2.68 N No 0.000 No Precipitation 06/26/2019 05:03 PM 06/26/2019 05:08 PM 0.000 0.000 0.000 0.000 0.000 Not Reported Not Reported
07/12/2019 01:31 AM 65.48 58.82 54.50 90.50 57.92 67.0 Not Reported 2.24 NW 2.68 NW 3.80 NW No 0.000 No Precipitation 06/26/2019 05:03 PM 06/26/2019 05:08 PM 0.000 0.000 0.000 0.000 0.000 Not Reported Not Reported
07/12/2019 01:46 AM 65.84 58.82 54.50 90.50 57.92 66.0 Not Reported 2.68 NW 2.24 NW 3.13 NW No 0.000 No Precipitation 06/26/2019 05:03 PM 06/26/2019 05:08 PM 0.000 0.000 0.000 0.000 0.000 Not Reported Not Reported
07/12/2019 02:01 AM 65.48 58.82 54.14 90.50 57.92 66.0 Not Reported 2.68 NW 2.91 NW 4.47 NW No 0.000 No Precipitation 06/26/2019 05:03 PM 06/26/2019 05:08 PM 0.000 0.000 0.000 0.000 0.000 Not Reported Not Reported
07/12/2019 02:16 AM 65.66 58.64 53.96 90.50 57.92 66.0 Not Reported 2.01 NW 1.57 NW 3.58 NW No 0.000 No Precipitation 06/26/2019 05:03 PM 06/26/2019 05:08 PM 0.000 0.000 0.000 0.000 0.000 Not Reported Not Reported
07/12/2019 02:31 AM 65.66 58.46 53.60 90.50 57.92 65.0 Not Reported 5.82 NW 5.82 NW 7.16 N No 0.000 No Precipitation 06/26/2019 05:03 PM 06/26/2019 05:08 PM 0.000 0.000 0.000 0.000 0.000 Not Reported Not Reported
07/12/2019 02:46 AM 65.30 58.28 53.78 90.50 57.92 66.0 Not Reported 3.58 NW 3.80 NW 7.16 NW No 0.000 No Precipitation 06/26/2019 05:03 PM 06/26/2019 05:08 PM 0.000 0.000 0.000 0.000 0.000 Not Reported Not Reported
07/12/2019 03:01 AM 65.30 58.28 53.42 90.50 57.92 65.0 Not Reported 3.13 NW 2.24 NW 4.47 NW No 0.000 No Precipitation 06/26/2019 05:03 PM 06/26/2019 05:08 PM 0.000 0.000 0.000 0.000 0.000 Not Reported Not Reported
07/12/2019 03:16 AM 64.76 57.92 53.24 90.50 57.92 66.0 Not Reported 4.92 NW 6.93 NW 6.26 N No 0.000 No Precipitation 06/26/2019 05:03 PM 06/26/2019 05:08 PM 0.000 0.000 0.000 0.000 0.000 Not Reported Not Reported
07/12/2019 03:31 AM 64.40 57.74 53.42 90.50 57.92 67.0 Not Reported 2.24 W 2.46 NW 3.36 W No 0.000 No Precipitation 06/26/2019 05:03 PM 06/26/2019 05:08 PM 0.000 0.000 0.000 0.000 0.000 Not Reported Not Reported
07/12/2019 03:46 AM 64.22 57.56 53.06 90.50 57.92 66.0 Not Reported 2.01 NW 2.68 W 2.68 NW No 0.000 No Precipitation 06/26/2019 05:03 PM 06/26/2019 05:08 PM 0.000 0.000 0.000 0.000 0.000 Not Reported Not Reported
07/12/2019 04:01 AM 63.50 57.20 52.88 90.50 57.92 68.0 Not Reported 2.24 NW 2.01 NW 3.58 NW No 0.000 No Precipitation 06/26/2019 05:03 PM 06/26/2019 05:08 PM 0.000 0.000 0.000 0.000 0.000 Not Reported Not Reported
07/12/2019 04:16 AM 63.50 57.20 52.70 90.50 57.92 67.0 Not Reported 2.46 NW 3.36 NW 4.92 NW No 0.000 No Precipitation 06/26/2019 05:03 PM 06/26/2019 05:08 PM 0.000 0.000 0.000 0.000 0.000 Not Reported Not Reported
07/12/2019 04:31 AM 63.50 57.20 52.52 90.50 57.92 67.0 Not Reported 2.91 W 3.13 NW 5.37 W No 0.000 No Precipitation 06/26/2019 05:03 PM 06/26/2019 05:08 PM 0.000 0.000 0.000 0.000 0.000 Not Reported Not Reported
07/12/2019 04:46 AM 63.32 57.02 52.52 90.50 57.92 67.0 Not Reported 4.70 W 4.47 W 3.58 NW No 0.000 No Precipitation 06/26/2019 05:03 PM 06/26/2019 05:08 PM 0.000 0.000 0.000 0.000 0.000 Not Reported Not Reported
07/12/2019 05:01 AM 62.78 56.84 52.52 90.50 57.92 68.0 Not Reported 3.80 NW 2.46 NW 5.37 NW No 0.000 No Precipitation 06/26/2019 05:03 PM 06/26/2019 05:08 PM 0.000 0.000 0.000 0.000 0.000 Not Reported Not Reported
07/12/2019 05:16 AM 63.86 57.02 52.34 90.50 57.92 66.0 Not Reported 2.91 NW 3.36 W 4.25 N No 0.000 No Precipitation 06/26/2019 05:03 PM 06/26/2019 05:08 PM 0.000 0.000 0.000 0.000 0.000 Not Reported Not Reported
07/12/2019 05:31 AM 63.86 56.84 52.16 90.50 57.92 65.0 Not Reported 3.36 NW 2.46 NW 4.92 NW No 0.000 No Precipitation 06/26/2019 05:03 PM 06/26/2019 05:08 PM 0.000 0.000 0.000 0.000 0.000 Not Reported Not Reported
07/12/2019 05:46 AM 63.14 56.66 51.98 90.50 58.82 66.0 Not Reported 3.13 W 3.36 NW 4.70 NW No 0.000 No Precipitation 06/26/2019 05:03 PM 06/26/2019 05:08 PM 0.000 0.000 0.000 0.000 0.000 Not Reported Not Reported
07/12/2019 06:01 AM 62.24 56.30 52.16 90.50 58.82 69.0 Not Reported 2.68 NW 3.13 NW 3.13 NW No 0.000 No Precipitation 06/26/2019 05:03 PM 06/26/2019 05:08 PM 0.000 0.000 0.000 0.000 0.000 Not Reported Not Reported
07/12/2019 06:16 AM 61.70 56.12 52.16 90.50 59.18 70.0 Not Reported 2.91 NW 3.13 NW 4.03 NW No 0.000 No Precipitation 06/26/2019 05:03 PM 06/26/2019 05:08 PM 0.000 0.000 0.000 0.000 0.000 Not Reported Not Reported
07/12/2019 06:31 AM 61.34 55.94 52.16 90.50 59.18 71.0 Not Reported 2.68 NW 3.36 NW 5.37 N No 0.000 No Precipitation 06/26/2019 05:03 PM 06/26/2019 05:08 PM 0.000 0.000 0.000 0.000 0.000 Not Reported Not Reported
07/12/2019 06:46 AM 60.98 55.76 52.16 90.50 59.18 72.0 Not Reported 2.46 NW 2.24 NW 6.49 NW No 0.000 No Precipitation 06/26/2019 05:03 PM 06/26/2019 05:08 PM 0.000 0.000 0.000 0.000 0.000 Not Reported Not Reported
07/12/2019 07:01 AM 60.62 55.58 52.16 90.50 59.18 73.0 Not Reported 2.46 NW 2.24 NW 3.58 NW No 0.000 No Precipitation 06/26/2019 05:03 PM 06/26/2019 05:08 PM 0.000 0.000 0.000 0.000 0.000 Not Reported Not Reported
07/12/2019 07:16 AM 60.26 55.58 52.16 90.50 59.18 74.0 Not Reported 2.91 NW 3.36 W 3.36 NW No 0.000 No Precipitation 06/26/2019 05:03 PM 06/26/2019 05:08 PM 0.000 0.000 0.000 0.000 0.000 Not Reported Not Reported
07/12/2019 07:31 AM 60.62 55.58 51.98 90.50 59.18 72.0 Not Reported 2.91 NW 4.70 W 4.25 NW No 0.000 No Precipitation 06/26/2019 05:03 PM 06/26/2019 05:08 PM 0.000 0.000 0.000 0.000 0.000 Not Reported Not Reported
07/12/2019 07:46 AM 60.98 55.94 52.16 90.50 59.18 72.0 Not Reported 3.36 NW 3.36 N 5.14 NW No 0.000 No Precipitation 06/26/2019 05:03 PM 06/26/2019 05:08 PM 0.000 0.000 0.000 0.000 0.000 Not Reported Not Reported
07/12/2019 08:01 AM 60.98 55.94 52.34 90.50 59.18 73.0 Not Reported 2.46 NW 2.46 NW 4.70 NW No 0.000 No Precipitation 06/26/2019 05:03 PM 06/26/2019 05:08 PM 0.000 0.000 0.000 0.000 0.000 Not Reported Not Reported
07/12/2019 08:16 AM 61.16 56.12 52.52 90.50 59.18 73.0 Not Reported 2.91 NW 4.03 NW 4.92 NW No 0.000 No Precipitation 06/26/2019 05:03 PM 06/26/2019 05:08 PM 0.000 0.000 0.000 0.000 0.000 Not Reported Not Reported
07/12/2019 08:31 AM 64.58 57.74 53.06 90.50 60.26 66.0 Not Reported 2.91 NW 1.79 N 3.80 NW No 0.000 No Precipitation 06/26/2019 05:03 PM 06/26/2019 05:08 PM 0.000 0.000 0.000 0.000 0.000 Not Reported Not Reported
07/12/2019 08:46 AM 66.92 58.64 53.06 90.50 60.26 61.0 Not Reported 1.79 NW 2.68 NW 4.25 N No 0.000 No Precipitation 06/26/2019 05:03 PM 06/26/2019 05:08 PM 0.000 0.000 0.000 0.000 0.000 Not Reported Not Reported
07/12/2019 09:01 AM 68.36 59.72 53.96 90.50 60.26 59.0 Not Reported 2.46 NW 2.01 NW 4.47 N No 0.000 No Precipitation 06/26/2019 05:03 PM 06/26/2019 05:08 PM 0.000 0.000 0.000 0.000 0.000 Not Reported Not Reported
07/12/2019 09:16 AM 69.98 60.44 54.32 90.50 60.26 57.0 Not Reported 2.24 NW 2.24 NW 2.68 N No 0.000 No Precipitation 06/26/2019 05:03 PM 06/26/2019 05:08 PM 0.000 0.000 0.000 0.000 0.000 Not Reported Not Reported
07/12/2019 09:31 AM 70.52 60.62 54.32 90.50 60.26 56.0 Not Reported 2.46 NW 2.01 W 2.68 NW No 0.000 No Precipitation 06/26/2019 05:03 PM 06/26/2019 05:08 PM 0.000 0.000 0.000 0.000 0.000 Not Reported Not Reported
07/12/2019 09:46 AM 72.86 62.06 55.04 90.50 60.26 53.0 Not Reported 1.57 W 2.01 W 2.46 W No 0.000 No Precipitation 06/26/2019 05:03 PM 06/26/2019 05:08 PM 0.000 0.000 0.000 0.000 0.000 Not Reported Not Reported
07/12/2019 10:01 AM 74.66 62.78 55.58 90.50 60.26 51.0 Not Reported 1.57 NW 0.89 N 4.03 N No 0.000 No Precipitation 06/26/2019 05:03 PM 06/26/2019 05:08 PM 0.000 0.000 0.000 0.000 0.000 Not Reported Not Reported
07/12/2019 10:16 AM 75.92 62.96 55.04 90.50 60.26 48.0 Not Reported 1.12 NW 0.67 NW 3.80 NW No 0.000 No Precipitation 06/26/2019 05:03 PM 06/26/2019 05:08 PM 0.000 0.000 0.000 0.000 0.000 Not Reported Not Reported
07/12/2019 10:31 AM 76.82 64.94 58.10 90.50 60.26 52.0 Not Reported 0.89 NE 0.89 NE 1.57 N No 0.000 No Precipitation 06/26/2019 05:03 PM 06/26/2019 05:08 PM 0.000 0.000 0.000 0.000 0.000 Not Reported Not Reported
07/12/2019 10:46 AM 78.44 64.58 56.48 90.50 60.26 46.0 Not Reported 0.22 SE 0.22 E 2.68 E No 0.000 No Precipitation 06/26/2019 05:03 PM 06/26/2019 05:08 PM 0.000 0.000 0.000 0.000 0.000 Not Reported Not Reported
07/12/2019 11:01 AM 78.98 64.94 56.66 90.50 60.26 46.0 Not Reported 1.34 SE 2.68 E 2.01 E No 0.000 No Precipitation 06/26/2019 05:03 PM 06/26/2019 05:08 PM 0.000 0.000 0.000 0.000 0.000 Not Reported Not Reported
07/12/2019 11:16 AM 78.80 64.76 56.66 90.50 60.26 46.0 Not Reported 4.03 E 3.58 SE 4.70 E No 0.000 No Precipitation 06/26/2019 05:03 PM 06/26/2019 05:08 PM 0.000 0.000 0.000 0.000 0.000 Not Reported Not Reported
07/12/2019 11:31 AM 80.42 64.76 55.40 90.50 60.26 42.0 Not Reported 3.13 E 2.91 SE 3.80 E No 0.000 No Precipitation 06/26/2019 05:03 PM 06/26/2019 05:08 PM 0.000 0.000 0.000 0.000 0.000 Not Reported Not Reported
07/12/2019 11:46 AM 82.04 64.94 54.86 90.50 60.26 39.0 Not Reported 3.36 SE 3.13 SE 3.80 E No 0.000 No Precipitation 06/26/2019 05:03 PM 06/26/2019 05:08 PM 0.000 0.000 0.000 0.000 0.000 Not Reported Not Reported
07/12/2019 12:01 PM 82.40 66.20 56.84 90.50 60.26 41.0 Not Reported 4.70 SE 6.26 SE 5.59 E No 0.000 No Precipitation 06/26/2019 05:03 PM 06/26/2019 05:08 PM 0.000 0.000 0.000 0.000 0.000 Not Reported Not Reported
07/12/2019 12:16 PM 83.66 65.12 53.78 90.50 60.26 35.0 Not Reported 5.14 SE 6.49 SE 6.26 SE No 0.000 No Precipitation 06/26/2019 05:03 PM 06/26/2019 05:08 PM 0.000 0.000 0.000 0.000 0.000 Not Reported Not Reported
07/12/2019 12:31 PM 85.10 66.02 54.86 90.50 60.26 35.0 Not Reported 5.14 E 3.36 SE 7.83 SE No 0.000 No Precipitation 06/26/2019 05:03 PM 06/26/2019 05:08 PM 0.000 0.000 0.000 0.000 0.000 Not Reported Not Reported
07/12/2019 12:46 PM 85.46 66.20 55.04 90.50 60.26 35.0 Not Reported 4.92 E 5.14 E 8.95 E No 0.000 No Precipitation 06/26/2019 05:03 PM 06/26/2019 05:08 PM 0.000 0.000 0.000 0.000 0.000 Not Reported Not Reported
07/12/2019 01:01 PM 85.82 66.74 55.76 90.50 60.26 36.0 Not Reported 5.82 E 4.47 SE 7.16 NE No 0.000 No Precipitation 06/26/2019 05:03 PM 06/26/2019 05:08 PM 0.000 0.000 0.000 0.000 0.000 Not Reported Not Reported
07/12/2019 01:16 PM 85.46 65.84 54.32 90.50 60.26 34.0 Not Reported 2.91 SE 2.46 SE 6.93 E No 0.000 No Precipitation 06/26/2019 05:03 PM 06/26/2019 05:08 PM 0.000 0.000 0.000 0.000 0.000 Not Reported Not Reported
07/12/2019 01:31 PM 86.36 66.38 54.50 90.50 60.26 33.0 Not Reported 4.03 E 3.58 SE 8.05 SE No 0.000 No Precipitation 06/26/2019 05:03 PM 06/26/2019 05:08 PM 0.000 0.000 0.000 0.000 0.000 Not Reported Not Reported
07/12/2019 01:46 PM 86.90 65.66 52.70 90.50 60.26 31.0 Not Reported 6.04 E 10.29 SE 8.28 E No 0.000 No Precipitation 06/26/2019 05:03 PM 06/26/2019 05:08 PM 0.000 0.000 0.000 0.000 0.000 Not Reported Not Reported
07/12/2019 02:01 PM 88.70 65.84 51.80 90.50 60.26 28.0 Not Reported 4.03 SE 5.14 NE 6.04 E No 0.000 No Precipitation 06/26/2019 05:03 PM 06/26/2019 05:08 PM 0.000 0.000 0.000 0.000 0.000 Not Reported Not Reported
07/12/2019 02:16 PM 89.60 66.74 52.88 90.50 60.26 28.0 Not Reported 1.79 E 2.46 SE 8.95 E No 0.000 No Precipitation 06/26/2019 05:03 PM 06/26/2019 05:08 PM 0.000 0.000 0.000 0.000 0.000 Not Reported Not Reported
07/12/2019 02:31 PM 89.06 65.30 50.00 90.86 60.26 26.0 Not Reported 2.91 SE 2.46 SE 5.14 NE No 0.000 No Precipitation 06/26/2019 05:03 PM 06/26/2019 05:08 PM 0.000 0.000 0.000 0.000 0.000 Not Reported Not Reported
07/12/2019 02:46 PM 89.78 65.66 50.18 90.86 60.26 25.0 Not Reported 6.93 E 4.92 E 6.93 E No 0.000 No Precipitation 06/26/2019 05:03 PM 06/26/2019 05:08 PM 0.000 0.000 0.000 0.000 0.000 Not Reported Not Reported
07/12/2019 03:01 PM 90.86 65.84 50.18 91.04 60.26 24.0 Not Reported 4.25 SE 2.24 S 7.61 SE No 0.000 No Precipitation 06/26/2019 05:03 PM 06/26/2019 05:08 PM 0.000 0.000 0.000 0.000 0.000 Not Reported Not Reported
07/12/2019 03:16 PM 91.22 66.20 50.54 91.58 60.26 25.0 Not Reported 2.24 S 1.79 S 4.92 SE No 0.000 No Precipitation 06/26/2019 05:03 PM 06/26/2019 05:08 PM 0.000 0.000 0.000 0.000 0.000 Not Reported Not Reported
07/12/2019 03:31 PM 92.12 66.56 50.72 92.12 60.26 24.0 Not Reported 2.91 SE 2.68 SE 6.26 E No 0.000 No Precipitation 06/26/2019 05:03 PM 06/26/2019 05:08 PM 0.000 0.000 0.000 0.000 0.000 Not Reported Not Reported
07/12/2019 03:46 PM 90.68 66.74 52.34 92.30 60.26 27.0 Not Reported 2.91 SE 3.36 E 6.04 E No 0.000 No Precipitation 06/26/2019 05:03 PM 06/26/2019 05:08 PM 0.000 0.000 0.000 0.000 0.000 Not Reported Not Reported
07/12/2019 04:01 PM 91.76 67.10 52.16 92.84 60.26 26.0 Not Reported 3.80 E 7.61 SE 6.26 SE No 0.000 No Precipitation 06/26/2019 05:03 PM 06/26/2019 05:08 PM 0.000 0.000 0.000 0.000 0.000 Not Reported Not Reported
07/12/2019 04:16 PM 90.50 66.20 51.26 92.84 60.26 26.0 Not Reported 6.71 E 5.37 SE 10.96 E No 0.000 No Precipitation 06/26/2019 05:03 PM 06/26/2019 05:08 PM 0.000 0.000 0.000 0.000 0.000 Not Reported Not Reported
07/12/2019 04:31 PM 91.40 67.10 52.70 92.84 60.26 26.0 Not Reported 4.47 E 5.59 E 7.16 E No 0.000 No Precipitation 06/26/2019 05:03 PM 06/26/2019 05:08 PM 0.000 0.000 0.000 0.000 0.000 Not Reported Not Reported
07/12/2019 04:46 PM 91.58 67.10 52.34 92.84 60.26 26.0 Not Reported 2.24 SE 1.34 SE 8.95 E No 0.000 No Precipitation 06/26/2019 05:03 PM 06/26/2019 05:08 PM 0.000 0.000 0.000 0.000 0.000 Not Reported Not Reported
07/12/2019 05:01 PM 91.04 67.10 52.70 92.84 60.26 27.0 Not Reported 2.91 SE 4.47 E 9.84 E No 0.000 No Precipitation 06/26/2019 05:03 PM 06/26/2019 05:08 PM 0.000 0.000 0.000 0.000 0.000 Not Reported Not Reported
07/12/2019 05:16 PM 92.12 67.64 53.42 92.84 60.26 27.0 Not Reported 4.47 SE 4.47 SE 10.07 E No 0.000 No Precipitation 06/26/2019 05:03 PM 06/26/2019 05:08 PM 0.000 0.000 0.000 0.000 0.000 Not Reported Not Reported
07/12/2019 05:31 PM 92.12 67.46 52.52 92.84 60.26 26.0 Not Reported 5.59 SE 2.68 SE 8.72 SE No 0.000 No Precipitation 06/26/2019 05:03 PM 06/26/2019 05:08 PM 0.000 0.000 0.000 0.000 0.000 Not Reported Not Reported
07/12/2019 05:46 PM 92.30 67.46 52.52 93.20 60.26 26.0 Not Reported 4.70 E 3.36 E 9.62 E No 0.000 No Precipitation 06/26/2019 05:03 PM 06/26/2019 05:08 PM 0.000 0.000 0.000 0.000 0.000 Not Reported Not Reported
07/12/2019 06:01 PM 92.12 67.28 52.34 93.20 60.26 25.0 Not Reported 4.03 SE 5.37 SE 9.62 E No 0.000 No Precipitation 06/26/2019 05:03 PM 06/26/2019 05:08 PM 0.000 0.000 0.000 0.000 0.000 Not Reported Not Reported
07/12/2019 06:16 PM 91.58 67.10 51.80 93.20 60.26 25.0 Not Reported 6.49 SE 1.57 SE 9.84 E No 0.000 No Precipitation 06/26/2019 05:03 PM 06/26/2019 05:08 PM 0.000 0.000 0.000 0.000 0.000 Not Reported Not Reported
07/12/2019 06:31 PM 91.04 66.74 51.98 93.20 60.26 26.0 Not Reported 7.38 E 8.28 SE 10.07 E No 0.000 No Precipitation 06/26/2019 05:03 PM 06/26/2019 05:08 PM 0.000 0.000 0.000 0.000 0.000 Not Reported Not Reported
07/12/2019 06:46 PM 91.04 66.38 51.44 93.20 60.26 26.0 Not Reported 5.37 SE 6.26 E 10.96 E No 0.000 No Precipitation 06/26/2019 05:03 PM 06/26/2019 05:08 PM 0.000 0.000 0.000 0.000 0.000 Not Reported Not Reported
07/12/2019 07:01 PM 91.40 66.92 52.34 93.20 60.26 26.0 Not Reported 4.92 SE 1.34 SE 9.17 SE No 0.000 No Precipitation 06/26/2019 05:03 PM 06/26/2019 05:08 PM 0.000 0.000 0.000 0.000 0.000 Not Reported Not Reported
07/12/2019 07:16 PM 90.86 66.20 50.90 93.20 60.26 25.0 Not Reported 4.70 E 4.25 SE 7.61 E No 0.000 No Precipitation 06/26/2019 05:03 PM 06/26/2019 05:08 PM 0.000 0.000 0.000 0.000 0.000 Not Reported Not Reported
07/12/2019 07:31 PM 89.24 66.74 53.42 93.20 60.26 30.0 Not Reported 1.57 SE 0.45 E 6.04 SE No 0.000 No Precipitation 06/26/2019 05:03 PM 06/26/2019 05:08 PM 0.000 0.000 0.000 0.000 0.000 Not Reported Not Reported
07/12/2019 07:46 PM 83.30 65.84 55.40 93.20 60.26 39.0 Not Reported 0.22 SW 0.00 NE 2.01 S No 0.000 No Precipitation 06/26/2019 05:03 PM 06/26/2019 05:08 PM 0.000 0.000 0.000 0.000 0.000 Not Reported Not Reported
07/12/2019 08:01 PM 80.42 65.12 56.84 93.20 60.26 43.0 Not Reported 0.45 W 1.79 W 1.57 W No 0.000 No Precipitation 06/26/2019 05:03 PM 06/26/2019 05:08 PM 0.000 0.000 0.000 0.000 0.000 Not Reported Not Reported
07/12/2019 08:16 PM 81.50 64.40 54.86 93.20 60.26 38.0 Not Reported 0.45 SW 0.00 S 2.68 NW No 0.000 No Precipitation 06/26/2019 05:03 PM 06/26/2019 05:08 PM 0.000 0.000 0.000 0.000 0.000 Not Reported Not Reported
07/12/2019 08:31 PM 81.14 65.48 56.48 93.20 60.26 42.0 Not Reported 1.34 NE 3.80 NE 2.91 E No 0.000 No Precipitation 06/26/2019 05:03 PM 06/26/2019 05:08 PM 0.000 0.000 0.000 0.000 0.000 Not Reported Not Reported
07/12/2019 08:46 PM 80.78 65.12 55.40 93.20 60.26 41.0 Not Reported 0.67 SE 0.45 N 4.25 E No 0.000 No Precipitation 06/26/2019 05:03 PM 06/26/2019 05:08 PM 0.000 0.000 0.000 0.000 0.000 Not Reported Not Reported
07/12/2019 09:01 PM 79.52 64.94 55.94 93.20 60.26 44.0 Not Reported 0.89 S 0.22 E 2.01 S No 0.000 No Precipitation 06/26/2019 05:03 PM 06/26/2019 05:08 PM 0.000 0.000 0.000 0.000 0.000 Not Reported Not Reported
07/12/2019 09:16 PM 77.72 64.22 56.48 93.20 60.26 47.0 Not Reported 0.89 N 0.67 NW 0.67 SW No 0.000 No Precipitation 06/26/2019 05:03 PM 06/26/2019 05:08 PM 0.000 0.000 0.000 0.000 0.000 Not Reported Not Reported
07/12/2019 09:31 PM 75.74 63.32 55.94 93.20 60.26 49.0 Not Reported 0.89 W 1.57 W 1.79 W No 0.000 No Precipitation 06/26/2019 05:03 PM 06/26/2019 05:08 PM 0.000 0.000 0.000 0.000 0.000 Not Reported Not Reported
07/12/2019 09:46 PM 75.02 63.32 56.66 93.20 60.26 52.0 Not Reported 0.67 NW 0.00 NW 2.91 NW No 0.000 No Precipitation 06/26/2019 05:03 PM 06/26/2019 05:08 PM 0.000 0.000 0.000 0.000 0.000 Not Reported Not Reported
07/12/2019 10:01 PM 73.94 63.14 56.66 93.20 60.26 54.0 Not Reported 0.67 NW 1.34 NW 1.57 W No 0.000 No Precipitation 06/26/2019 05:03 PM 06/26/2019 05:08 PM 0.000 0.000 0.000 0.000 0.000 Not Reported Not Reported
07/12/2019 10:16 PM 72.86 63.14 57.38 93.20 60.26 58.0 Not Reported 1.34 NW 0.45 N 3.80 W No 0.000 No Precipitation 06/26/2019 05:03 PM 06/26/2019 05:08 PM 0.000 0.000 0.000 0.000 0.000 Not Reported Not Reported
07/12/2019 10:31 PM 73.22 62.78 56.66 93.20 60.26 55.0 Not Reported 0.67 NW 0.89 NW 1.79 NW No 0.000 No Precipitation 06/26/2019 05:03 PM 06/26/2019 05:08 PM 0.000 0.000 0.000 0.000 0.000 Not Reported Not Reported
07/12/2019 10:46 PM 71.60 62.60 57.20 93.20 60.26 60.0 Not Reported 2.01 NW 1.12 NW 1.79 NW No 0.000 No Precipitation 06/26/2019 05:03 PM 06/26/2019 05:08 PM 0.000 0.000 0.000 0.000 0.000 Not Reported Not Reported
07/12/2019 11:01 PM 70.88 61.88 56.12 93.20 60.26 59.0 Not Reported 1.34 NW 0.89 W 1.79 NW No 0.000 No Precipitation 06/26/2019 05:03 PM 06/26/2019 05:08 PM 0.000 0.000 0.000 0.000 0.000 Not Reported Not Reported
07/12/2019 11:16 PM 70.70 61.70 56.12 93.20 60.26 59.0 Not Reported 1.34 NW 2.01 NW 1.79 NW No 0.000 No Precipitation 06/26/2019 05:03 PM 06/26/2019 05:08 PM 0.000 0.000 0.000 0.000 0.000 Not Reported Not Reported
07/12/2019 11:31 PM 70.16 61.52 56.30 93.20 60.26 61.0 Not Reported 1.57 NW 2.01 NW 2.24 W No 0.000 No Precipitation 06/26/2019 05:03 PM 06/26/2019 05:08 PM 0.000 0.000 0.000 0.000 0.000 Not Reported Not Reported
07/12/2019 11:46 PM 69.44 61.16 55.94 93.20 60.26 62.0 Not Reported 0.89 NW 1.34 NW 2.68 NW No 0.000 No Precipitation 06/26/2019 05:03 PM 06/26/2019 05:08 PM 0.000 0.000 0.000 0.000 0.000 Not Reported Not Reported